createdAt,value
2023-04-09T00:01:07.180Z,90.18
2023-04-09T00:02:10.839Z,90.02
2023-04-09T00:03:14.790Z,90.44
2023-04-09T00:04:17.828Z,89.72
2023-04-09T00:05:19.681Z,89.78
2023-04-09T00:06:22.636Z,89.97
2023-04-09T00:07:24.442Z,89.71
2023-04-09T00:08:27.354Z,89.57
2023-04-09T00:09:29.623Z,89.40
2023-04-09T00:10:32.440Z,89.35
2023-04-09T00:11:34.296Z,89.44
2023-04-09T00:12:37.914Z,88.94
2023-04-09T00:13:40.152Z,89.09
2023-04-09T00:14:44.394Z,88.77
2023-04-09T00:15:46.801Z,89.01
2023-04-09T00:16:49.629Z,88.80
2023-04-09T00:17:52.352Z,89.06
2023-04-09T00:18:56.383Z,88.57
2023-04-09T00:19:58.207Z,88.18
2023-04-09T00:21:01.010Z,87.75
2023-04-09T00:22:03.231Z,87.27
2023-04-09T00:23:06.085Z,87.29
2023-04-09T00:24:07.910Z,87.39
2023-04-09T00:25:10.758Z,87.25
2023-04-09T00:26:12.581Z,87.58
2023-04-09T00:27:15.780Z,87.78
2023-04-09T00:28:18.069Z,87.60
2023-04-09T00:29:21.317Z,87.50
2023-04-09T00:30:24.772Z,87.36
2023-04-09T00:31:27.666Z,87.06
2023-04-09T00:32:29.521Z,86.87
2023-04-09T00:33:32.358Z,86.80
2023-04-09T00:34:34.374Z,86.98
2023-04-09T00:35:37.226Z,87.33
2023-04-09T00:36:39.080Z,87.55
2023-04-09T00:37:42.052Z,87.50
2023-04-09T00:38:43.935Z,87.51
2023-04-09T00:39:47.763Z,87.53
2023-04-09T00:40:50.449Z,87.88
2023-04-09T00:41:57.854Z,88.20
2023-04-09T00:42:59.660Z,88.59
2023-04-09T00:44:02.511Z,88.63
2023-04-09T00:45:06.021Z,88.91
2023-04-09T00:46:10.342Z,89.00
2023-04-09T00:47:12.606Z,89.30
2023-04-09T00:48:16.145Z,89.67
2023-04-09T00:49:18.074Z,89.81
2023-04-09T00:50:24.645Z,90.05
2023-04-09T00:51:26.792Z,90.00
2023-04-09T00:52:31.029Z,89.98
2023-04-09T00:53:34.937Z,89.92
2023-04-09T00:54:37.016Z,89.95
2023-04-09T00:55:41.521Z,90.28
2023-04-09T00:56:44.099Z,90.04
2023-04-09T00:57:46.950Z,89.54
2023-04-09T00:58:49.352Z,89.57
2023-04-09T00:59:52.378Z,89.69
2023-04-09T01:00:56.084Z,89.89
2023-04-09T01:01:59.344Z,89.96
2023-04-09T01:03:02.590Z,90.10
2023-04-09T01:04:04.771Z,90.47
2023-04-09T01:05:08.081Z,90.67
2023-04-09T01:06:13.749Z,90.69
2023-04-09T01:07:21.881Z,90.63
2023-04-09T01:08:32.532Z,90.42
2023-04-09T01:09:38.342Z,90.21
2023-04-09T01:10:42.685Z,90.24
2023-04-09T01:11:52.925Z,90.21
2023-04-09T01:13:03.928Z,90.71
2023-04-09T01:14:11.393Z,90.59
2023-04-09T01:15:16.998Z,90.70
2023-04-09T01:16:19.490Z,90.76
2023-04-09T01:17:27.238Z,90.85
2023-04-09T01:18:31.565Z,90.67
2023-04-09T01:19:43.123Z,90.55
2023-04-09T01:20:50.302Z,90.66
2023-04-09T01:21:53.590Z,90.11
2023-04-09T01:23:02.636Z,90.73
2023-04-09T01:24:15.947Z,90.79
2023-04-09T01:25:32.921Z,90.67
2023-04-09T01:26:46.793Z,91.00
2023-04-09T01:27:59.579Z,91.04
2023-04-09T01:29:04.304Z,91.38
2023-04-09T01:30:07.605Z,91.53
2023-04-09T01:31:13.589Z,91.03
2023-04-09T01:32:17.016Z,90.96
2023-04-09T01:33:25.023Z,91.55
2023-04-09T01:34:27.588Z,91.57
2023-04-09T01:35:30.900Z,91.87
2023-04-09T01:36:33.634Z,91.87
2023-04-09T01:37:37.008Z,92.13
2023-04-09T01:38:41.127Z,92.57
2023-04-09T01:39:44.265Z,92.21
2023-04-09T01:40:46.180Z,91.95
2023-04-09T01:41:49.580Z,91.91
2023-04-09T01:42:52.032Z,92.01
2023-04-09T01:43:55.372Z,92.17
2023-04-09T01:44:59.381Z,92.29
2023-04-09T01:46:03.437Z,92.32
2023-04-09T01:47:05.555Z,92.58
2023-04-09T01:48:08.404Z,92.25
2023-04-09T01:49:11.634Z,92.28
2023-04-09T01:50:15.000Z,91.80
2023-04-09T01:51:17.658Z,91.66
2023-04-09T01:52:20.828Z,91.77
2023-04-09T01:53:22.829Z,91.88
2023-04-09T01:54:26.238Z,91.79
2023-04-09T01:55:31.339Z,91.96
2023-04-09T01:56:42.037Z,91.88
2023-04-09T01:57:43.839Z,91.40
2023-04-09T01:58:46.812Z,90.95
2023-04-09T01:59:48.643Z,91.40
2023-04-09T02:00:59.929Z,91.06
2023-04-09T02:02:11.117Z,91.19
2023-04-09T02:03:18.369Z,91.27
2023-04-09T02:04:25.157Z,91.55
2023-04-09T02:05:29.490Z,91.25
2023-04-09T02:06:36.013Z,91.29
2023-04-09T02:07:40.570Z,91.45
2023-04-09T02:08:46.492Z,91.60
2023-04-09T02:09:48.601Z,91.59
2023-04-09T02:10:55.617Z,91.46
2023-04-09T02:11:58.875Z,91.47
2023-04-09T02:13:03.191Z,91.71
2023-04-09T02:14:08.665Z,91.67
2023-04-09T02:15:13.992Z,91.61
2023-04-09T02:16:17.700Z,91.62
2023-04-09T02:17:20.830Z,91.67
2023-04-09T02:18:24.261Z,91.66
2023-04-09T02:19:39.538Z,91.69
2023-04-09T02:20:41.330Z,91.62
2023-04-09T02:21:45.692Z,91.67
2023-04-09T02:22:47.705Z,91.89
2023-04-09T02:23:50.748Z,91.94
2023-04-09T02:24:53.400Z,91.71
2023-04-09T02:25:56.285Z,91.75
2023-04-09T02:26:58.188Z,91.95
2023-04-09T02:28:01.230Z,91.58
2023-04-09T02:29:03.535Z,91.70
2023-04-09T02:30:07.451Z,91.89
2023-04-09T02:31:09.500Z,91.89
2023-04-09T02:32:13.768Z,92.00
2023-04-09T02:33:15.648Z,92.20
2023-04-09T02:34:18.668Z,92.07
2023-04-09T02:35:20.818Z,92.18
2023-04-09T02:36:23.590Z,92.21
2023-04-09T02:37:26.211Z,92.06
2023-04-09T02:38:29.030Z,92.21
2023-04-09T02:39:31.013Z,92.23
2023-04-09T02:40:33.877Z,91.96
2023-04-09T02:41:35.859Z,92.17
2023-04-09T02:42:38.722Z,92.05
2023-04-09T02:43:42.183Z,92.12
2023-04-09T02:44:45.281Z,91.89
2023-04-09T02:45:48.636Z,91.88
2023-04-09T02:46:52.458Z,91.79
2023-04-09T02:47:55.953Z,91.70
2023-04-09T02:48:58.792Z,91.71
2023-04-09T02:50:00.724Z,91.77
2023-04-09T02:51:06.922Z,92.00
2023-04-09T02:52:10.153Z,91.86
2023-04-09T02:53:13.128Z,92.21
2023-04-09T02:54:14.965Z,92.33
2023-04-09T02:55:19.759Z,92.49
2023-04-09T02:56:21.725Z,92.69
2023-04-09T02:57:24.562Z,92.71
2023-04-09T02:58:26.408Z,92.60
2023-04-09T02:59:29.256Z,92.72
2023-04-09T03:00:31.384Z,92.86
2023-04-09T03:01:34.227Z,92.99
2023-04-09T03:02:36.624Z,92.94
2023-04-09T03:03:42.520Z,92.63
2023-04-09T03:04:44.407Z,92.92
2023-04-09T03:05:48.058Z,93.05
2023-04-09T03:06:51.591Z,92.95
2023-04-09T03:07:55.073Z,93.04
2023-04-09T03:08:58.176Z,93.08
2023-04-09T03:10:00.979Z,92.90
2023-04-09T03:11:02.911Z,92.77
2023-04-09T03:12:05.862Z,92.62
2023-04-09T03:13:07.722Z,93.06
2023-04-09T03:14:10.927Z,93.00
2023-04-09T03:15:14.409Z,92.82
2023-04-09T03:16:17.333Z,93.02
2023-04-09T03:17:19.209Z,93.06
2023-04-09T03:18:22.518Z,93.07
2023-04-09T03:19:30.693Z,92.96
2023-04-09T03:20:32.538Z,92.89
2023-04-09T03:21:35.440Z,92.78
2023-04-09T03:22:37.628Z,92.65
2023-04-09T03:23:43.276Z,92.38
2023-04-09T03:24:45.469Z,92.41
2023-04-09T03:25:48.260Z,92.29
2023-04-09T03:26:52.180Z,92.15
2023-04-09T03:27:55.073Z,92.08
2023-04-09T03:29:16.534Z,92.13
2023-04-09T03:30:18.726Z,91.89
2023-04-09T03:31:21.958Z,92.00
2023-04-09T03:32:23.978Z,92.02
2023-04-09T03:33:26.815Z,91.73
2023-04-09T03:34:32.158Z,91.83
2023-04-09T03:35:35.107Z,91.93
2023-04-09T03:36:39.004Z,91.68
2023-04-09T03:37:54.306Z,91.77
2023-04-09T03:38:57.478Z,91.76
2023-04-09T03:40:10.513Z,91.88
2023-04-09T03:41:13.825Z,91.99
2023-04-09T03:42:15.824Z,92.24
2023-04-09T03:43:23.105Z,92.34
2023-04-09T03:44:27.804Z,92.27
2023-04-09T03:45:35.512Z,92.48
2023-04-09T03:46:50.826Z,92.44
2023-04-09T03:47:57.446Z,92.38
2023-04-09T03:49:01.730Z,92.50
2023-04-09T03:50:16.300Z,92.66
2023-04-09T03:51:27.770Z,92.80
2023-04-09T03:52:33.925Z,92.81
2023-04-09T03:53:40.709Z,92.79
2023-04-09T03:54:43.956Z,92.94
2023-04-09T03:55:53.628Z,92.95
2023-04-09T03:57:01.438Z,93.00
2023-04-09T03:58:03.423Z,92.93
2023-04-09T03:59:10.023Z,93.03
2023-04-09T04:00:15.206Z,92.92
2023-04-09T04:01:26.826Z,92.69
2023-04-09T04:02:33.837Z,92.77
2023-04-09T04:03:43.984Z,93.11
2023-04-09T04:04:52.925Z,92.94
2023-04-09T04:06:03.421Z,93.12
2023-04-09T04:07:17.705Z,93.06
2023-04-09T04:08:29.816Z,93.06
2023-04-09T04:09:33.378Z,93.34
2023-04-09T04:10:41.554Z,93.16
2023-04-09T04:11:44.413Z,92.75
2023-04-09T04:12:47.889Z,92.45
2023-04-09T04:14:10.076Z,92.56
2023-04-09T04:15:14.751Z,92.33
2023-04-09T04:16:21.278Z,92.33
2023-04-09T04:17:24.529Z,92.29
2023-04-09T04:18:27.546Z,92.30
2023-04-09T04:19:30.746Z,92.13
2023-04-09T04:20:33.617Z,92.20
2023-04-09T04:21:44.094Z,92.08
2023-04-09T04:22:46.132Z,91.96
2023-04-09T04:23:49.100Z,92.07
2023-04-09T04:24:57.251Z,92.43
2023-04-09T04:26:01.164Z,92.44
2023-04-09T04:27:11.302Z,92.59
2023-04-09T04:28:13.294Z,92.55
2023-04-09T04:29:18.017Z,92.77
2023-04-09T04:30:28.965Z,92.67
2023-04-09T04:31:38.614Z,92.87
2023-04-09T04:32:40.776Z,93.00
2023-04-09T04:33:47.168Z,93.20
2023-04-09T04:34:50.914Z,93.16
2023-04-09T04:36:08.095Z,93.31
2023-04-09T04:37:38.337Z,93.41
2023-04-09T04:38:41.273Z,93.35
2023-04-09T04:39:51.230Z,93.50
2023-04-09T04:40:53.909Z,93.43
2023-04-09T04:41:58.323Z,93.89
2023-04-09T04:43:02.839Z,93.79
2023-04-09T04:44:07.200Z,93.92
2023-04-09T04:45:13.062Z,94.27
2023-04-09T04:46:28.812Z,94.21
2023-04-09T04:47:30.968Z,94.32
2023-04-09T04:48:34.618Z,94.05
2023-04-09T04:49:36.483Z,94.15
2023-04-09T04:50:41.941Z,94.16
2023-04-09T04:51:46.866Z,94.13
2023-04-09T04:52:53.185Z,93.92
2023-04-09T04:53:58.094Z,94.05
2023-04-09T04:55:01.798Z,94.27
2023-04-09T04:56:07.614Z,94.24
2023-04-09T04:57:10.645Z,94.27
2023-04-09T04:58:15.585Z,94.21
2023-04-09T04:59:23.005Z,94.11
2023-04-09T05:00:34.240Z,94.27
2023-04-09T05:01:39.507Z,94.28
2023-04-09T05:02:47.409Z,94.21
2023-04-09T05:03:54.299Z,94.53
2023-04-09T05:05:17.840Z,94.62
2023-04-09T05:06:27.948Z,94.55
2023-04-09T05:07:32.176Z,94.91
2023-04-09T05:08:36.588Z,94.72
2023-04-09T05:09:38.513Z,94.72
2023-04-09T05:10:44.675Z,94.51
2023-04-09T05:11:47.495Z,94.70
2023-04-09T05:12:55.033Z,94.70
2023-04-09T05:14:07.080Z,94.94
2023-04-09T05:15:10.349Z,94.97
2023-04-09T05:16:17.451Z,94.82
2023-04-09T05:17:24.672Z,95.10
2023-04-09T05:18:26.701Z,94.71
2023-04-09T05:19:29.879Z,95.02
2023-04-09T05:20:37.188Z,94.96
2023-04-09T05:21:46.804Z,95.05
2023-04-09T05:22:50.517Z,95.18
2023-04-09T05:24:02.401Z,94.65
2023-04-09T05:25:08.315Z,94.37
2023-04-09T05:26:14.644Z,94.75
2023-04-09T05:27:30.283Z,94.74
2023-04-09T05:28:37.232Z,94.41
2023-04-09T05:29:46.110Z,94.63
2023-04-09T05:30:49.444Z,94.43
2023-04-09T05:31:54.457Z,94.63
2023-04-09T05:33:02.425Z,94.65
2023-04-09T05:34:07.291Z,94.63
2023-04-09T05:35:14.081Z,94.49
2023-04-09T05:36:20.447Z,94.67
2023-04-09T05:37:22.318Z,94.60
2023-04-09T05:38:27.933Z,95.29
2023-04-09T05:39:35.056Z,95.18
2023-04-09T05:40:38.245Z,95.26
2023-04-09T05:41:47.562Z,94.95
2023-04-09T05:43:04.617Z,94.90
2023-04-09T05:44:15.680Z,95.72
2023-04-09T05:45:18.426Z,95.42
2023-04-09T05:46:25.810Z,95.10
2023-04-09T05:47:30.592Z,95.11
2023-04-09T05:48:38.803Z,94.92
2023-04-09T05:49:41.192Z,94.92
2023-04-09T05:50:55.078Z,94.74
2023-04-09T05:52:00.111Z,94.82
2023-04-09T05:53:05.545Z,95.05
2023-04-09T05:54:13.717Z,94.94
2023-04-09T05:55:18.646Z,95.13
2023-04-09T05:56:27.090Z,94.95
2023-04-09T05:57:33.329Z,94.99
2023-04-09T05:58:38.918Z,94.92
2023-04-09T05:59:41.755Z,95.45
2023-04-09T06:00:43.691Z,94.73
2023-04-09T06:01:46.569Z,95.33
2023-04-09T06:02:48.599Z,95.06
2023-04-09T06:03:53.831Z,95.33
2023-04-09T06:04:57.395Z,95.06
2023-04-09T06:06:01.066Z,95.44
2023-04-09T06:07:03.640Z,95.63
2023-04-09T06:08:06.491Z,94.84
2023-04-09T06:09:09.973Z,94.90
2023-04-09T06:10:14.383Z,95.00
2023-04-09T06:11:21.298Z,95.68
2023-04-09T06:12:24.107Z,95.36
2023-04-09T06:13:26.417Z,95.61
2023-04-09T06:14:29.287Z,95.19
2023-04-09T06:15:31.340Z,95.91
2023-04-09T06:16:34.858Z,95.88
2023-04-09T06:17:36.810Z,95.60
2023-04-09T06:18:39.636Z,95.31
2023-04-09T06:19:42.670Z,95.38
2023-04-09T06:20:44.610Z,94.88
2023-04-09T06:21:47.501Z,95.41
2023-04-09T06:22:50.379Z,94.78
2023-04-09T06:23:53.648Z,94.77
2023-04-09T06:24:57.269Z,95.14
2023-04-09T06:25:59.723Z,95.17
2023-04-09T06:27:04.329Z,95.43
2023-04-09T06:28:06.625Z,95.34
2023-04-09T06:29:11.484Z,94.99
2023-04-09T06:30:15.677Z,94.72
2023-04-09T06:31:17.781Z,95.03
2023-04-09T06:32:20.839Z,95.32
2023-04-09T06:33:24.236Z,94.57
2023-04-09T06:34:27.123Z,94.74
2023-04-09T06:35:31.695Z,95.03
2023-04-09T06:36:33.753Z,95.00
2023-04-09T06:37:45.966Z,95.04
2023-04-09T06:38:50.588Z,94.52
2023-04-09T06:40:00.445Z,94.48
2023-04-09T06:41:08.480Z,94.32
2023-04-09T06:42:11.897Z,94.20
2023-04-09T06:43:25.372Z,94.58
2023-04-09T06:44:29.804Z,94.53
2023-04-09T06:45:35.414Z,94.65
2023-04-09T06:46:37.538Z,95.17
2023-04-09T06:47:40.535Z,94.61
2023-04-09T06:48:44.614Z,94.62
2023-04-09T06:49:47.580Z,94.36
2023-04-09T06:50:49.501Z,94.72
2023-04-09T06:51:54.924Z,94.62
2023-04-09T06:52:58.405Z,94.16
2023-04-09T06:54:00.416Z,94.18
2023-04-09T06:55:03.617Z,94.09
2023-04-09T06:56:06.244Z,93.47
2023-04-09T06:57:09.323Z,93.04
2023-04-09T06:58:12.747Z,93.49
2023-04-09T06:59:16.225Z,93.25
2023-04-09T07:00:18.182Z,93.48
2023-04-09T07:01:21.769Z,93.50
2023-04-09T07:03:41.777Z,92.80
2023-04-09T07:04:45.026Z,92.77
2023-04-09T07:05:48.649Z,92.86
2023-04-09T07:06:54.832Z,93.25
2023-04-09T07:07:57.063Z,93.06
2023-04-09T07:09:00.026Z,93.34
2023-04-09T07:10:03.089Z,92.81
2023-04-09T07:11:06.547Z,92.86
2023-04-09T07:12:09.437Z,92.85
2023-04-09T07:13:12.764Z,92.58
2023-04-09T07:14:21.735Z,92.76
2023-04-09T07:15:23.703Z,92.33
2023-04-09T07:16:26.598Z,91.84
2023-04-09T07:17:37.557Z,92.22
2023-04-09T07:18:40.758Z,92.27
2023-04-09T07:19:42.701Z,91.70
2023-04-09T07:20:46.867Z,91.46
2023-04-09T07:21:48.762Z,91.69
2023-04-09T07:22:51.593Z,91.43
2023-04-09T07:23:54.806Z,91.07
2023-04-09T07:24:56.925Z,91.10
2023-04-09T07:26:03.302Z,91.16
2023-04-09T07:27:06.475Z,90.72
2023-04-09T07:28:08.488Z,90.68
2023-04-09T07:29:12.927Z,90.93
2023-04-09T07:30:15.018Z,90.60
2023-04-09T07:31:17.990Z,90.31
2023-04-09T07:32:22.556Z,90.24
2023-04-09T07:33:25.958Z,89.92
2023-04-09T07:34:28.566Z,89.65
2023-04-09T07:35:38.933Z,89.84
2023-04-09T07:36:43.108Z,89.83
2023-04-09T07:37:46.675Z,90.19
2023-04-09T07:38:49.817Z,90.26
2023-04-09T07:39:54.901Z,90.32
2023-04-09T07:40:58.458Z,90.06
2023-04-09T07:42:02.821Z,90.57
2023-04-09T07:43:07.567Z,90.38
2023-04-09T07:44:38.727Z,90.23
2023-04-09T07:45:45.051Z,90.68
2023-04-09T07:46:48.015Z,90.51
2023-04-09T07:47:51.577Z,90.50
2023-04-09T07:48:55.192Z,89.72
2023-04-09T07:49:57.301Z,90.07
2023-04-09T07:51:00.729Z,89.41
2023-04-09T07:52:44.631Z,90.02
2023-04-09T07:53:56.090Z,90.07
2023-04-09T07:54:58.572Z,90.06
2023-04-09T07:56:04.605Z,90.10
2023-04-09T07:57:14.843Z,89.79
2023-04-09T07:58:17.879Z,90.14
2023-04-09T07:59:20.053Z,90.44
2023-04-09T08:00:30.727Z,90.08
2023-04-09T08:01:32.953Z,89.58
2023-04-09T08:02:36.462Z,89.60
2023-04-09T08:03:39.621Z,89.67
2023-04-09T08:04:42.851Z,89.75
2023-04-09T08:05:45.989Z,89.58
2023-04-09T08:06:52.712Z,89.41
2023-04-09T08:07:54.767Z,89.72
2023-04-09T08:08:57.658Z,89.38
2023-04-09T08:09:59.587Z,89.00
2023-04-09T08:11:03.535Z,89.02
2023-04-09T08:12:05.638Z,89.33
2023-04-09T08:13:09.596Z,89.08
2023-04-09T08:14:13.916Z,89.24
2023-04-09T08:15:16.826Z,88.76
2023-04-09T08:16:23.569Z,88.81
2023-04-09T08:17:27.824Z,89.03
2023-04-09T08:18:31.285Z,88.55
2023-04-09T08:19:33.358Z,88.42
2023-04-09T08:20:36.573Z,88.07
2023-04-09T08:21:38.745Z,87.67
2023-04-09T08:22:44.676Z,88.18
2023-04-09T08:23:47.648Z,87.77
2023-04-09T08:24:52.826Z,87.56
2023-04-09T08:25:54.746Z,87.27
2023-04-09T08:26:58.569Z,87.52
2023-04-09T08:28:00.791Z,87.30
2023-04-09T08:29:03.810Z,87.07
2023-04-09T08:30:07.905Z,87.31
2023-04-09T08:31:09.825Z,87.21
2023-04-09T08:32:14.224Z,87.65
2023-04-09T08:34:48.702Z,87.23
2023-04-09T08:35:51.597Z,87.23
2023-04-09T08:36:53.640Z,87.26
2023-04-09T08:37:57.620Z,87.40
2023-04-09T08:39:00.568Z,87.29
2023-04-09T08:40:03.935Z,87.41
2023-04-09T08:41:05.898Z,86.95
2023-04-09T08:42:12.547Z,87.09
2023-04-09T08:43:16.824Z,86.93
2023-04-09T08:44:18.852Z,87.04
2023-04-09T08:45:22.460Z,86.60
2023-04-09T08:46:24.944Z,86.60
2023-04-09T08:47:29.467Z,86.57
2023-04-09T08:48:32.671Z,86.03
2023-04-09T08:49:35.823Z,86.09
2023-04-09T08:50:37.772Z,86.11
2023-04-09T08:51:40.804Z,85.92
2023-04-09T08:52:43.044Z,86.13
2023-04-09T08:53:47.752Z,86.64
2023-04-09T08:54:52.109Z,86.65
2023-04-09T08:55:54.895Z,86.61
2023-04-09T08:56:58.937Z,86.60
2023-04-09T08:58:04.716Z,86.72
2023-04-09T08:59:07.660Z,86.72
2023-04-09T09:00:10.607Z,86.49
2023-04-09T09:01:21.722Z,86.96
2023-04-09T09:02:24.998Z,87.30
2023-04-09T09:03:28.430Z,87.23
2023-04-09T09:04:44.970Z,86.79
2023-04-09T09:05:47.124Z,86.79
2023-04-09T09:06:50.208Z,87.13
2023-04-09T09:07:54.662Z,87.00
2023-04-09T09:09:06.122Z,86.82
2023-04-09T09:10:09.819Z,86.77
2023-04-09T09:11:25.917Z,86.57
2023-04-09T09:12:36.972Z,86.81
2023-04-09T09:13:39.869Z,86.97
2023-04-09T09:14:42.957Z,86.66
2023-04-09T09:15:46.194Z,86.83
2023-04-09T09:17:05.314Z,86.96
2023-04-09T09:18:08.732Z,86.46
2023-04-09T09:19:30.472Z,86.34
2023-04-09T09:20:32.506Z,86.00
2023-04-09T09:21:36.490Z,86.16
2023-04-09T09:22:54.923Z,86.18
2023-04-09T09:23:58.812Z,86.03
2023-04-09T09:25:00.974Z,85.64
2023-04-09T09:26:13.186Z,85.86
2023-04-09T09:27:31.407Z,86.05
2023-04-09T09:28:36.404Z,86.56
2023-04-09T09:29:41.858Z,86.74
2023-04-09T09:30:49.174Z,86.44
2023-04-09T09:31:55.591Z,86.90
2023-04-09T09:33:05.772Z,86.60
2023-04-09T09:34:10.162Z,86.39
2023-04-09T09:35:14.781Z,86.03
2023-04-09T09:36:17.742Z,86.10
2023-04-09T09:37:26.995Z,86.09
2023-04-09T09:38:32.147Z,85.90
2023-04-09T09:39:44.696Z,86.13
2023-04-09T09:40:47.780Z,86.21
2023-04-09T09:42:08.188Z,86.27
2023-04-09T09:43:11.878Z,86.00
2023-04-09T09:44:32.910Z,86.02
2023-04-09T09:45:36.757Z,85.78
2023-04-09T09:46:41.647Z,86.18
2023-04-09T09:47:44.670Z,86.32
2023-04-09T09:48:50.003Z,86.26
2023-04-09T09:49:52.441Z,86.22
2023-04-09T09:50:56.920Z,85.89
2023-04-09T09:52:00.590Z,85.86
2023-04-09T09:53:05.589Z,85.27
2023-04-09T09:54:08.523Z,85.44
2023-04-09T09:55:14.940Z,85.81
2023-04-09T09:56:20.770Z,86.00
2023-04-09T09:57:26.804Z,85.88
2023-04-09T09:58:32.782Z,85.72
2023-04-09T09:59:38.930Z,85.06
2023-04-09T10:00:41.341Z,85.22
2023-04-09T10:01:47.505Z,84.54
2023-04-09T10:02:59.318Z,84.56
2023-04-09T10:04:02.829Z,84.12
2023-04-09T10:05:07.450Z,84.08
2023-04-09T10:06:12.605Z,83.65
2023-04-09T10:07:16.120Z,83.24
2023-04-09T10:08:19.717Z,83.06
2023-04-09T10:09:23.232Z,83.12
2023-04-09T10:10:25.302Z,83.03
2023-04-09T10:11:28.310Z,83.56
2023-04-09T10:12:31.296Z,82.67
2023-04-09T10:13:36.689Z,83.30
2023-04-09T10:14:41.095Z,82.67
2023-04-09T10:15:44.705Z,82.46
2023-04-09T10:16:47.698Z,82.71
2023-04-09T10:17:50.604Z,82.18
2023-04-09T10:18:54.517Z,82.18
2023-04-09T10:20:01.870Z,81.45
2023-04-09T10:21:10.432Z,82.15
2023-04-09T10:22:19.186Z,81.50
2023-04-09T10:23:29.192Z,81.58
2023-04-09T10:24:32.714Z,82.21
2023-04-09T10:25:35.676Z,81.78
2023-04-09T10:26:42.085Z,82.37
2023-04-09T10:27:46.129Z,82.27
2023-04-09T10:29:05.443Z,81.91
2023-04-09T10:30:10.774Z,81.89
2023-04-09T10:31:14.322Z,81.36
2023-04-09T10:32:21.611Z,81.00
2023-04-09T10:33:26.649Z,80.12
2023-04-09T10:34:30.177Z,79.93
2023-04-09T10:35:32.088Z,80.84
2023-04-09T10:36:34.984Z,80.12
2023-04-09T10:37:49.644Z,80.58
2023-04-09T10:38:52.692Z,80.21
2023-04-09T10:39:54.893Z,79.90
2023-04-09T10:40:58.562Z,79.48
2023-04-09T10:42:02.448Z,79.74
2023-04-09T10:43:06.461Z,79.69
2023-04-09T10:44:20.441Z,79.91
2023-04-09T10:45:23.421Z,79.66
2023-04-09T10:46:26.907Z,79.76
2023-04-09T10:47:33.765Z,79.65
2023-04-09T10:48:35.936Z,79.52
2023-04-09T10:49:42.819Z,79.35
2023-04-09T10:50:51.192Z,79.18
2023-04-09T10:51:55.618Z,77.91
2023-04-09T10:53:02.275Z,77.80
2023-04-09T10:54:46.231Z,76.58
2023-04-09T10:55:50.504Z,76.11
2023-04-09T10:57:14.032Z,77.26
2023-04-09T10:58:17.010Z,77.44
2023-04-09T10:59:21.042Z,77.57
2023-04-09T11:00:27.351Z,77.02
2023-04-09T11:01:29.417Z,76.42
2023-04-09T11:03:08.422Z,75.36
2023-04-09T11:04:43.131Z,76.11
2023-04-09T11:05:49.400Z,76.57
2023-04-09T11:06:53.374Z,76.03
2023-04-09T11:07:59.607Z,75.18
2023-04-09T11:09:04.673Z,74.55
2023-04-09T11:10:07.989Z,73.94
2023-04-09T11:11:11.530Z,72.96
2023-04-09T11:12:13.413Z,71.98
2023-04-09T11:13:17.586Z,69.22
2023-04-09T11:14:20.038Z,68.95
2023-04-09T11:15:23.305Z,69.06
2023-04-09T11:16:29.004Z,69.97
2023-04-09T11:17:31.480Z,70.35
2023-04-09T11:18:36.971Z,70.87
2023-04-09T11:20:08.709Z,70.01
2023-04-09T11:21:13.436Z,70.18
2023-04-09T11:22:15.668Z,69.97
2023-04-09T11:23:19.138Z,69.35
2023-04-09T11:24:23.185Z,68.72
2023-04-09T11:25:27.848Z,68.62
2023-04-09T11:26:36.061Z,68.62
2023-04-09T11:27:39.811Z,68.01
2023-04-09T11:28:44.451Z,66.89
2023-04-09T11:29:46.375Z,66.67
2023-04-09T11:30:53.023Z,66.18
2023-04-09T11:31:55.542Z,65.42
2023-04-09T11:32:58.550Z,66.02
2023-04-09T11:34:01.433Z,65.43
2023-04-09T11:35:03.731Z,65.16
2023-04-09T11:36:07.399Z,65.11
2023-04-09T11:37:14.418Z,64.60
2023-04-09T11:38:17.414Z,64.01
2023-04-09T11:39:19.317Z,63.76
2023-04-09T11:40:24.576Z,62.17
2023-04-09T11:41:36.683Z,61.29
2023-04-09T11:42:38.779Z,62.22
2023-04-09T11:43:41.772Z,61.53
2023-04-09T11:44:51.611Z,60.09
2023-04-09T11:45:53.959Z,61.26
2023-04-09T11:46:58.108Z,60.33
2023-04-09T11:48:03.353Z,60.15
2023-04-09T11:49:05.520Z,59.95
2023-04-09T11:50:09.734Z,59.91
2023-04-09T11:51:12.632Z,58.83
2023-04-09T11:52:16.522Z,58.57
2023-04-09T11:53:20.789Z,56.64
2023-04-09T11:54:22.859Z,57.88
2023-04-09T11:55:28.218Z,57.75
2023-04-09T11:56:31.139Z,58.02
2023-04-09T11:57:44.753Z,57.11
2023-04-09T11:58:48.187Z,57.87
2023-04-09T11:59:50.202Z,58.38
2023-04-09T12:01:01.361Z,58.82
2023-04-09T12:02:07.837Z,58.67
2023-04-09T12:03:12.182Z,58.62
2023-04-09T12:04:21.361Z,58.39
2023-04-09T12:05:24.875Z,58.02
2023-04-09T12:06:28.583Z,58.88
2023-04-09T12:07:33.303Z,58.19
2023-04-09T12:08:37.332Z,58.26
2023-04-09T12:09:47.737Z,57.92
2023-04-09T12:10:53.578Z,57.89
2023-04-09T12:11:57.471Z,57.57
2023-04-09T12:13:04.618Z,57.15
2023-04-09T12:14:07.906Z,57.06
2023-04-09T12:15:20.704Z,57.26
2023-04-09T12:16:23.886Z,58.17
2023-04-09T12:17:27.080Z,59.06
2023-04-09T12:18:30.014Z,59.96
2023-04-09T12:19:32.051Z,59.76
2023-04-09T12:20:36.677Z,59.08
2023-04-09T12:21:50.055Z,57.81
2023-04-09T12:22:52.085Z,58.46
2023-04-09T12:23:55.349Z,58.12
2023-04-09T12:24:57.789Z,57.97
2023-04-09T12:26:02.447Z,58.47
2023-04-09T12:27:07.032Z,59.23
2023-04-09T12:28:12.042Z,59.90
2023-04-09T12:29:15.070Z,59.26
2023-04-09T12:30:18.971Z,58.92
2023-04-09T12:31:22.066Z,58.89
2023-04-09T12:32:24.435Z,59.01
2023-04-09T12:33:31.108Z,58.63
2023-04-09T12:34:42.415Z,58.50
2023-04-09T12:35:45.696Z,59.35
2023-04-09T12:36:48.371Z,59.63
2023-04-09T12:37:52.114Z,59.42
2023-04-09T12:38:54.319Z,59.47
2023-04-09T12:39:57.697Z,59.93
2023-04-09T12:41:04.425Z,60.14
2023-04-09T12:42:06.955Z,60.05
2023-04-09T12:43:10.537Z,59.98
2023-04-09T12:44:13.038Z,59.99
2023-04-09T12:45:19.346Z,60.35
2023-04-09T12:46:22.020Z,60.33
2023-04-09T12:47:25.123Z,60.29
2023-04-09T12:48:27.691Z,60.27
2023-04-09T12:49:31.769Z,60.55
2023-04-09T12:50:37.118Z,60.33
2023-04-09T12:51:40.237Z,60.51
2023-04-09T12:52:43.086Z,60.75
2023-04-09T12:53:46.467Z,60.68
2023-04-09T12:54:49.113Z,60.70
2023-04-09T12:56:23.791Z,61.52
2023-04-09T12:57:28.054Z,61.63
2023-04-09T12:58:54.449Z,61.91
2023-04-09T13:00:31.369Z,62.46
2023-04-09T13:02:29.518Z,62.70
2023-04-09T13:03:33.520Z,63.54
2023-04-09T13:04:39.966Z,63.68
2023-04-09T13:05:46.079Z,64.38
2023-04-09T13:06:48.688Z,64.77
2023-04-09T13:07:53.602Z,64.88
2023-04-09T13:10:21.707Z,66.76
2023-04-09T13:11:27.858Z,66.45
2023-04-09T13:12:40.260Z,66.76
2023-04-09T13:14:04.545Z,68.97
2023-04-09T13:15:58.838Z,68.33
2023-04-09T13:17:03.107Z,69.04
2023-04-09T13:18:07.056Z,69.16
2023-04-09T13:19:09.731Z,70.20
2023-04-09T13:20:13.081Z,70.18
2023-04-09T13:21:18.815Z,70.34
2023-04-09T13:22:22.524Z,70.95
2023-04-09T13:23:24.550Z,71.13
2023-04-09T13:24:28.286Z,71.46
2023-04-09T13:25:31.414Z,71.35
2023-04-09T13:26:34.875Z,71.71
2023-04-09T13:27:38.132Z,71.88
2023-04-09T13:28:40.675Z,72.10
2023-04-09T13:29:47.318Z,72.17
2023-04-09T13:30:49.810Z,72.67
2023-04-09T13:31:53.000Z,72.29
2023-04-09T13:32:56.289Z,72.17
2023-04-09T13:34:02.873Z,72.76
2023-04-09T13:35:07.838Z,72.84
2023-04-09T13:36:12.255Z,72.47
2023-04-09T13:37:14.653Z,72.38
2023-04-09T13:38:17.895Z,72.94
2023-04-09T13:39:20.416Z,73.71
2023-04-09T13:40:24.730Z,73.19
2023-04-09T13:41:29.851Z,72.39
2023-04-09T13:42:37.460Z,71.13
2023-04-09T13:43:39.696Z,69.96
2023-04-09T13:44:45.474Z,69.53
2023-04-09T13:45:51.791Z,69.17
2023-04-09T13:46:55.825Z,69.04
2023-04-09T13:47:58.389Z,68.64
2023-04-09T13:49:02.831Z,69.08
2023-04-09T13:50:07.600Z,69.37
2023-04-09T13:51:10.805Z,69.47
2023-04-09T13:52:14.443Z,70.13
2023-04-09T13:53:17.022Z,70.37
2023-04-09T13:54:20.184Z,71.37
2023-04-09T13:55:22.252Z,71.13
2023-04-09T13:56:25.433Z,71.31
2023-04-09T13:57:27.395Z,71.07
2023-04-09T13:58:31.703Z,71.62
2023-04-09T13:59:34.915Z,71.52
2023-04-09T14:00:38.124Z,71.02
2023-04-09T14:01:42.794Z,71.16
2023-04-09T14:02:47.604Z,71.30
2023-04-09T14:03:49.836Z,71.67
2023-04-09T14:04:52.827Z,71.54
2023-04-09T14:05:54.917Z,71.13
2023-04-09T14:06:58.414Z,71.00